Time;durP1;ratioP1;P1;durP2;ratioP2;P2;SDS_P1;SDS_P2;PMS_P1;PMS_P2;Temp;Humidity;BMP_temperature;BMP_pressure;BME280_temperature;BME280_humidity;BME280_pressure;Samples;Min_cycle;Max_cycle;Signal;HPM_P1;HPM_P2
2022/07/12 00:00:41;;;;;;;3.20;1.43;;;;;;;17.57;100.00;101707.16;2072608;28;20199;-71
2022/07/12 00:01:41;;;;;;;3.90;1.53;;;;;;;17.59;100.00;101704.69;2066457;28;20288;-70
2022/07/12 00:02:42;;;;;;;2.40;1.27;;;;;;;17.58;100.00;101692.69;2070161;28;20197;-70
2022/07/12 00:03:42;;;;;;;3.80;1.30;;;;;;;17.58;100.00;101703.88;2071885;28;20207;-71
2022/07/12 00:04:43;;;;;;;3.27;1.20;;;;;;;17.58;100.00;101700.31;2071970;28;20197;-71
2022/07/12 00:05:43;;;;;;;2.73;1.27;;;;;;;17.57;100.00;101701.56;2066556;28;20171;-70
2022/07/12 00:06:44;;;;;;;3.13;1.30;;;;;;;17.57;100.00;101701.56;2072901;28;20670;-70
2022/07/12 00:07:44;;;;;;;5.33;1.40;;;;;;;17.55;100.00;101700.44;2072213;28;20747;-71
2022/07/12 00:08:45;;;;;;;4.57;1.30;;;;;;;17.35;100.00;101669.88;2072007;28;20194;-71
2022/07/12 00:09:45;;;;;;;3.43;1.23;;;;;;;17.52;100.00;101697.31;2071590;28;20194;-71
2022/07/12 00:10:45;;;;;;;4.47;1.37;;;;;;;17.50;100.00;101701.03;2072526;28;20203;-71
2022/07/12 00:11:46;;;;;;;4.40;1.33;;;;;;;16.90;100.00;101613.44;2072806;28;20217;-71
2022/07/12 00:12:47;;;;;;;3.80;1.50;;;;;;;17.44;100.00;101698.00;2072209;28;20201;-71
2022/07/12 00:13:47;;;;;;;3.50;1.40;;;;;;;17.40;100.00;101699.38;2070657;28;20178;-71
2022/07/12 00:14:49;;;;;;;8.50;1.90;;;;;;;17.31;100.00;101697.25;2065619;28;20182;-71
2022/07/12 00:15:49;;;;;;;4.00;1.70;;;;;;;17.32;100.00;101693.97;2073150;28;20251;-71
2022/07/12 00:16:49;;;;;;;5.90;1.57;;;;;;;17.34;100.00;101701.94;2073463;28;20487;-71
2022/07/12 00:17:50;;;;;;;3.00;1.20;;;;;;;17.32;100.00;101699.56;2072362;28;20191;-71
2022/07/12 00:18:50;;;;;;;5.20;1.73;;;;;;;17.28;100.00;101698.94;2072732;28;20202;-71
2022/07/12 00:19:51;;;;;;;5.03;1.37;;;;;;;17.18;100.00;101697.28;2072487;28;20271;-71
2022/07/12 00:20:51;;;;;;;3.20;1.10;;;;;;;17.11;100.00;101697.50;2072470;28;20191;-71
2022/07/12 00:21:52;;;;;;;6.30;1.50;;;;;;;17.10;100.00;101692.34;2072963;28;20587;-71
2022/07/12 00:22:52;;;;;;;4.57;1.30;;;;;;;17.10;100.00;101690.34;2071281;28;20183;-71
2022/07/12 00:23:53;;;;;;;4.87;1.50;;;;;;;17.10;100.00;101687.53;2063690;28;20710;-71
2022/07/12 00:24:54;;;;;;;3.80;1.40;;;;;;;16.90;100.00;101666.66;2072508;28;20181;-70
2022/07/12 00:25:55;;;;;;;3.17;1.20;;;;;;;17.12;100.00;101692.69;2071857;28;20195;-71
2022/07/12 00:26:55;;;;;;;5.40;1.43;;;;;;;17.14;100.00;101690.22;2072259;28;20450;-71
2022/07/12 00:27:56;;;;;;;5.10;1.60;;;;;;;17.01;100.00;101687.44;2072836;28;20595;-71
2022/07/12 00:28:57;;;;;;;3.83;1.30;;;;;;;17.09;100.00;101693.59;2072657;28;20198;-71
2022/07/12 00:29:58;;;;;;;5.43;1.40;;;;;;;17.06;100.00;101694.50;2072166;28;20226;-71
2022/07/12 00:30:59;;;;;;;5.30;1.50;;;;;;;16.94;100.00;101681.28;2070614;28;20426;-71
2022/07/12 00:32:00;;;;;;;3.13;1.53;;;;;;;17.05;100.00;101695.75;2065502;28;20210;-71
2022/07/12 00:33:00;;;;;;;2.97;1.33;;;;;;;17.05;100.00;101699.31;2072892;28;20428;-71
2022/07/12 00:34:01;;;;;;;5.30;1.30;;;;;;;16.94;100.00;101684.88;2072629;28;20195;-71
2022/07/12 00:35:02;;;;;;;4.27;1.30;;;;;;;17.04;100.00;101697.75;2071954;28;20204;-71
2022/07/12 00:36:03;;;;;;;4.17;1.40;;;;;;;17.06;100.00;101697.31;2067234;28;20206;-71
2022/07/12 00:37:04;;;;;;;4.80;1.73;;;;;;;17.00;100.00;101690.72;2064179;28;20445;-71
2022/07/12 00:38:04;;;;;;;5.90;1.30;;;;;;;16.74;100.00;101647.16;2068113;28;20440;-71
2022/07/12 00:39:05;;;;;;;4.53;1.20;;;;;;;17.01;100.00;101695.84;2072676;28;20677;-71
2022/07/12 00:40:08;;;;;;;2.43;1.20;;;;;;;16.17;100.00;101572.66;2072546;28;20223;-71
2022/07/12 00:41:08;;;;;;;3.63;1.40;;;;;;;16.98;100.00;101693.97;2064623;28;20176;-71
2022/07/12 00:42:09;;;;;;;5.00;1.33;;;;;;;16.99;100.00;101698.31;2073261;28;20457;-71
2022/07/12 00:43:09;;;;;;;4.17;1.37;;;;;;;16.55;100.00;101634.97;2064444;28;20252;-71
2022/07/12 00:44:10;;;;;;;3.47;1.40;;;;;;;17.02;100.00;101702.25;2070249;28;20704;-71
2022/07/12 00:45:11;;;;;;;3.77;1.43;;;;;;;16.11;100.00;101571.66;2071797;28;20201;-71
2022/07/12 00:46:13;;;;;;;4.23;1.37;;;;;;;16.96;100.00;101704.03;2068678;28;20190;-71
2022/07/12 00:47:40;;;;;;;4.60;1.30;;;;;;;16.98;100.00;101709.97;2068752;28;20207;-71
2022/07/12 00:48:41;;;;;;;7.57;1.30;;;;;;;16.48;100.00;101629.63;2064422;28;20884;-71
2022/07/12 00:49:41;;;;;;;2.43;1.50;;;;;;;17.01;100.00;101700.69;2063827;28;20528;-71
2022/07/12 00:50:42;;;;;;;5.13;1.20;;;;;;;16.91;100.00;101693.41;2067046;28;20285;-71
2022/07/12 00:51:44;;;;;;;2.87;1.30;;;;;;;17.00;100.00;101702.69;2072358;28;20661;-71
2022/07/12 00:52:47;;;;;;;5.13;1.60;;;;;;;17.02;100.00;101705.84;2072306;28;20461;-71
2022/07/12 00:53:51;;;;;;;2.03;1.37;;;;;;;16.99;100.00;101708.72;2071968;28;20424;-71
2022/07/12 00:54:52;;;;;;;3.50;1.30;;;;;;;16.96;100.00;101707.59;2073064;28;20420;-71
2022/07/12 00:55:57;;;;;;;4.00;1.37;;;;;;;16.93;100.00;101693.72;2064779;28;20434;-71
2022/07/12 00:56:57;;;;;;;2.83;1.20;;;;;;;16.98;100.00;101709.19;2070672;28;20466;-71
2022/07/12 00:57:57;;;;;;;2.53;1.30;;;;;;;16.96;100.00;101704.81;2072071;28;21034;-71
2022/07/12 00:58:58;;;;;;;2.87;1.40;;;;;;;16.94;100.00;101704.50;2072749;28;20204;-71
2022/07/12 00:59:59;;;;;;;2.87;1.30;;;;;;;16.63;100.00;101658.72;2072690;28;20217;-71
2022/07/12 01:00:59;;;;;;;4.17;1.43;;;;;;;16.75;100.00;101680.31;2072220;28;20314;-71
2022/07/12 01:02:01;;;;;;;4.40;1.50;;;;;;;16.66;100.00;101666.19;2072572;28;20650;-71
2022/07/12 01:03:02;;;;;;;5.37;1.87;;;;;;;16.93;100.00;101716.94;2072450;28;20180;-71
2022/07/12 01:04:04;;;;;;;4.83;1.80;;;;;;;16.09;100.00;101585.28;2072798;28;20904;-71
2022/07/12 01:05:07;;;;;;;7.93;1.70;;;;;;;16.76;100.00;101698.66;2064825;28;20529;-71
2022/07/12 01:06:08;;;;;;;6.77;1.80;;;;;;;16.90;100.00;101723.41;2071910;28;20471;-71
2022/07/12 01:07:09;;;;;;;7.33;1.97;;;;;;;16.89;100.00;101712.66;2067834;28;20452;-71
2022/07/12 01:08:10;;;;;;;4.53;1.73;;;;;;;16.89;100.00;101719.06;2072550;28;20181;-71
2022/07/12 01:09:12;;;;;;;5.33;1.70;;;;;;;16.47;100.00;101671.28;2071206;28;20244;-71
2022/07/12 01:10:12;;;;;;;6.07;1.70;;;;;;;15.78;100.00;101541.56;2071801;28;20827;-71
2022/07/12 01:11:15;;;;;;;9.47;1.70;;;;;;;16.85;100.00;101718.38;2072165;28;20456;-71
2022/07/12 01:12:15;;;;;;;7.60;1.90;;;;;;;16.79;100.00;101724.97;2072446;28;20190;-70
2022/07/12 01:13:16;;;;;;;4.97;1.87;;;;;;;16.77;100.00;101716.25;2071700;28;20434;-71
2022/07/12 01:14:17;;;;;;;7.53;2.10;;;;;;;15.96;100.00;101592.91;2064752;28;20567;-71
2022/07/12 01:15:20;;;;;;;6.07;2.10;;;;;;;16.58;100.00;101698.47;2071465;28;20562;-71
2022/07/12 01:16:21;;;;;;;4.40;1.80;;;;;;;16.74;100.00;101715.13;2072498;28;20646;-71
2022/07/12 01:17:24;;;;;;;6.00;1.90;;;;;;;16.55;100.00;101692.97;2066716;28;20455;-71
2022/07/12 01:18:27;;;;;;;10.37;2.00;;;;;;;16.70;100.00;101717.25;2068945;28;20497;-71
2022/07/12 01:19:28;;;;;;;7.70;2.20;;;;;;;16.36;100.00;101665.97;2072181;28;20472;-71
2022/07/12 01:20:29;;;;;;;6.80;2.00;;;;;;;16.67;100.00;101712.56;2071400;28;20496;-71
2022/07/12 01:21:33;;;;;;;7.03;1.70;;;;;;;16.67;100.00;101712.56;2072153;28;20422;-71
2022/07/12 01:22:38;;;;;;;5.50;1.90;;;;;;;16.66;100.00;101715.81;2072836;28;20420;-71
2022/07/12 01:23:39;;;;;;;6.47;1.80;;;;;;;16.12;100.00;101631.94;2072434;28;20501;-71
2022/07/12 01:24:40;;;;;;;14.83;2.23;;;;;;;16.64;100.00;101719.06;2072368;28;20415;-71
2022/07/12 01:25:41;;;;;;;9.23;2.10;;;;;;;16.63;100.00;101714.69;2071951;28;20905;-71
2022/07/12 01:26:41;;;;;;;11.00;2.60;;;;;;;16.61;100.00;101716.38;2072906;28;20928;-71
2022/07/12 01:27:42;;;;;;;8.43;1.93;;;;;;;16.60;100.00;101714.81;2071956;28;20718;-71
2022/07/12 01:28:42;;;;;;;10.77;1.93;;;;;;;16.61;100.00;101716.38;2072532;28;20258;-71
2022/07/12 01:29:43;;;;;;;7.47;2.10;;;;;;;16.52;100.00;101719.84;2072315;28;20634;-71
2022/07/12 01:30:43;;;;;;;4.07;1.97;;;;;;;16.45;100.00;101720.03;2072018;28;20709;-71
2022/07/12 01:31:44;;;;;;;4.90;1.80;;;;;;;16.16;100.00;101676.56;2072490;28;20270;-70
2022/07/12 01:32:45;;;;;;;5.80;1.40;;;;;;;16.42;100.00;101714.56;2072201;28;20318;-71
2022/07/12 01:33:45;;;;;;;5.37;1.30;;;;;;;16.44;100.00;101712.13;2071920;28;20229;-71
2022/07/12 01:34:48;;;;;;;4.03;1.80;;;;;;;16.27;100.00;101689.00;2072904;28;20266;-71
2022/07/12 01:35:49;;;;;;;5.03;1.50;;;;;;;16.33;100.00;101706.00;2068674;28;20185;-71
2022/07/12 01:36:50;;;;;;;5.53;1.53;;;;;;;15.66;100.00;101614.97;2065407;28;20491;-71
2022/07/12 01:37:50;;;;;;;4.60;1.47;;;;;;;16.27;100.00;101714.19;2069416;28;20190;-71
2022/07/12 01:38:51;;;;;;;3.90;1.70;;;;;;;16.24;100.00;101714.28;2072451;28;20564;-71
2022/07/12 01:39:56;;;;;;;6.50;1.80;;;;;;;16.25;100.00;101719.44;2072233;28;20211;-71
2022/07/12 01:40:57;;;;;;;5.90;1.70;;;;;;;16.11;100.00;101689.09;2068909;28;20211;-71
2022/07/12 01:41:58;;;;;;;3.27;1.40;;;;;;;16.21;100.00;101715.97;2066476;28;20945;-71
2022/07/12 01:42:59;;;;;;;4.50;1.57;;;;;;;16.19;100.00;101715.63;2071793;28;20816;-71
2022/07/12 01:43:59;;;;;;;3.43;1.50;;;;;;;16.19;100.00;101718.41;2072290;28;20234;-71
2022/07/12 01:45:00;;;;;;;5.03;1.43;;;;;;;15.74;100.00;101641.50;2072397;28;20715;-71
2022/07/12 01:46:01;;;;;;;2.43;1.13;;;;;;;16.26;100.00;101711.84;2071669;28;20198;-71
2022/07/12 01:47:02;;;;;;;2.77;1.37;;;;;;;15.33;100.00;101574.44;2070542;28;20451;-71
2022/07/12 01:48:04;;;;;;;5.03;1.90;;;;;;;16.21;100.00;101710.38;2072104;28;20197;-71
2022/07/12 01:49:04;;;;;;;5.43;1.70;;;;;;;15.54;100.00;101624.91;2072241;28;20456;-71
2022/07/12 01:50:09;;;;;;;8.43;1.77;;;;;;;16.16;100.00;101718.53;2072185;28;20462;-71
2022/07/12 01:51:10;;;;;;;4.90;1.40;;;;;;;15.79;100.00;101661.28;2071699;28;20446;-71
2022/07/12 01:52:12;;;;;;;4.10;1.70;;;;;;;16.19;100.00;101706.47;2071408;28;20676;-71
2022/07/12 01:53:14;;;;;;;3.73;1.33;;;;;;;16.19;100.00;101712.81;2071384;28;20200;-71
2022/07/12 01:54:14;;;;;;;4.40;1.60;;;;;;;16.18;100.00;101705.66;2064659;28;20417;-71
2022/07/12 01:55:15;;;;;;;3.93;1.50;;;;;;;16.21;100.00;101709.59;2071493;28;20596;-71
2022/07/12 01:56:15;;;;;;;2.87;1.20;;;;;;;16.22;100.00;101711.94;2066039;28;20275;-71
2022/07/12 01:57:17;;;;;;;3.97;1.37;;;;;;;16.26;100.00;101709.03;2068434;28;20315;-71
2022/07/12 01:58:17;;;;;;;4.13;1.67;;;;;;;16.30;100.00;101712.50;2072332;28;20193;-71
2022/07/12 01:59:21;;;;;;;4.40;1.60;;;;;;;16.32;100.00;101710.84;2071724;28;20475;-71
2022/07/12 02:00:22;;;;;;;5.40;1.60;;;;;;;15.68;100.00;101604.91;2072075;28;20562;-71
2022/07/12 02:01:24;;;;;;;3.53;1.37;;;;;;;16.32;100.00;101707.25;2072148;28;20437;-71
2022/07/12 02:02:28;;;;;;;5.63;1.50;;;;;;;16.24;100.00;101712.25;2072159;28;20735;-71
2022/07/12 02:03:29;;;;;;;9.40;1.70;;;;;;;16.23;100.00;101707.91;2064277;28;20433;-71
2022/07/12 02:04:29;;;;;;;4.83;1.60;;;;;;;15.72;100.00;101627.19;2071871;28;20444;-71
2022/07/12 02:05:30;;;;;;;5.83;1.70;;;;;;;16.31;100.00;101698.09;2065690;28;20202;-71
2022/07/12 02:06:31;;;;;;;6.70;1.60;;;;;;;16.31;100.00;101708.47;2069522;28;20591;-71
2022/07/12 02:07:32;;;;;;;4.63;1.50;;;;;;;16.32;100.00;101707.25;2067361;28;20214;-71
2022/07/12 02:08:33;;;;;;;3.33;1.37;;;;;;;16.09;100.00;101677.56;2067580;28;20888;-71
2022/07/12 02:09:33;;;;;;;4.50;1.50;;;;;;;16.24;100.00;101697.50;2072212;28;20422;-71
2022/07/12 02:10:33;;;;;;;2.33;1.30;;;;;;;16.20;100.00;101708.03;2072096;28;20216;-71
2022/07/12 02:11:34;;;;;;;3.90;1.60;;;;;;;15.61;100.00;101605.13;2072691;28;20203;-71
2022/07/12 02:12:36;;;;;;;5.50;1.40;;;;;;;16.28;100.00;101704.56;2072031;28;20206;-71
2022/07/12 02:13:36;;;;;;;4.47;1.40;;;;;;;16.15;100.00;101700.19;2064752;28;20210;-71
2022/07/12 02:14:37;;;;;;;5.47;1.63;;;;;;;16.12;100.00;101685.06;2063935;28;20453;-71
2022/07/12 02:15:37;;;;;;;6.87;1.77;;;;;;;16.28;100.00;101707.34;2068484;28;20209;-71
2022/07/12 02:16:41;;;;;;;7.33;1.77;;;;;;;16.12;100.00;101685.06;2072075;28;20199;-71
2022/07/12 02:17:41;;;;;;;6.33;1.73;;;;;;;16.22;100.00;101702.75;2071561;28;20204;-71
2022/07/12 02:18:42;;;;;;;5.03;1.37;;;;;;;16.22;100.00;101695.16;2072082;28;20922;-71
2022/07/12 02:19:43;;;;;;;2.30;1.27;;;;;;;16.34;100.00;101704.81;2071719;28;20195;-71
2022/07/12 02:20:43;;;;;;;5.63;1.97;;;;;;;16.36;100.00;101714.31;2072452;28;20561;-71
2022/07/12 02:21:44;;;;;;;3.33;1.20;;;;;;;15.81;100.00;101625.28;2064875;28;20185;-71
2022/07/12 02:22:45;;;;;;;4.43;1.60;;;;;;;16.42;100.00;101711.00;2070562;28;20583;-71
2022/07/12 02:23:45;;;;;;;7.70;1.80;;;;;;;16.44;100.00;101712.13;2071654;28;20284;-71
2022/07/12 02:24:46;;;;;;;7.53;2.50;;;;;;;15.85;100.00;101614.81;2072294;28;20211;-71
2022/07/12 02:25:46;;;;;;;3.77;1.70;;;;;;;16.47;100.00;101714.00;2071354;28;20223;-71
2022/07/12 02:26:47;;;;;;;6.33;1.97;;;;;;;16.49;100.00;101712.34;2069457;28;20541;-71
2022/07/12 02:27:49;;;;;;;5.30;1.77;;;;;;;16.47;100.00;101716.81;2064433;28;20206;-71
2022/07/12 02:28:49;;;;;;;5.87;1.47;;;;;;;16.34;100.00;101711.16;2072718;28;20173;-71
2022/07/12 02:29:50;;;;;;;3.87;1.60;;;;;;;16.32;100.00;101722.03;2064472;28;20440;-71
2022/07/12 02:30:51;;;;;;;4.27;1.40;;;;;;;16.35;100.00;101717.56;2069954;28;20190;-71
2022/07/12 02:31:51;;;;;;;6.67;1.77;;;;;;;15.61;100.00;101613.50;2071928;28;20784;-71
2022/07/12 02:32:51;;;;;;;3.80;1.73;;;;;;;16.29;100.00;101716.53;2068707;28;20208;-71
2022/07/12 02:33:52;;;;;;;4.53;1.50;;;;;;;16.34;100.00;101718.78;2065178;28;20657;-71
2022/07/12 02:34:52;;;;;;;7.47;2.10;;;;;;;16.29;100.00;101714.50;2067952;28;20227;-71
2022/07/12 02:35:53;;;;;;;6.57;1.60;;;;;;;16.31;100.00;101714.06;2073539;28;20192;-71
2022/07/12 02:36:53;;;;;;;4.47;1.27;;;;;;;16.29;100.00;101711.72;2072536;28;20272;-71
2022/07/12 02:37:54;;;;;;;5.07;2.00;;;;;;;16.27;100.00;101713.38;2074213;28;20177;-71
2022/07/12 02:38:55;;;;;;;5.30;1.63;;;;;;;15.89;100.00;101659.41;2073677;28;20576;-71
2022/07/12 02:40:52;;;;;;;8.10;1.73;;;;;;;16.32;100.00;101712.84;2067423;28;20258;-71
2022/07/12 02:41:16;;;;;;;5.33;1.80;;;;;;;16.30;100.00;101712.50;2073306;28;20227;-71
2022/07/12 02:42:17;;;;;;;4.00;1.47;;;;;;;15.69;100.00;101616.88;2073517;28;20967;-71
2022/07/12 02:43:18;;;;;;;4.43;1.50;;;;;;;16.20;100.00;101688.44;2072796;28;20209;-71
2022/07/12 02:44:18;;;;;;;5.53;1.77;;;;;;;16.39;100.00;101726.66;2073311;28;20453;-71
2022/07/12 02:45:19;;;;;;;4.73;1.70;;;;;;;16.31;100.00;101719.66;2073473;28;20201;-71
2022/07/12 02:46:19;;;;;;;5.07;1.97;;;;;;;16.29;100.00;101725.69;2072868;28;20194;-71
2022/07/12 02:47:19;;;;;;;4.17;1.70;;;;;;;16.29;100.00;101722.91;2072019;28;20651;-71
2022/07/12 02:48:20;;;;;;;4.37;1.70;;;;;;;16.32;100.00;101724.81;2074151;28;20183;-71
2022/07/12 02:49:21;;;;;;;4.07;1.80;;;;;;;16.21;100.00;101715.97;2073576;28;20550;-71
2022/07/12 02:50:21;;;;;;;5.93;2.10;;;;;;;16.29;100.00;101727.72;2073294;28;20698;-71
2022/07/12 02:51:22;;;;;;;3.67;1.50;;;;;;;16.30;100.00;101720.91;2073631;28;20591;-71
2022/07/12 02:52:22;;;;;;;6.33;1.70;;;;;;;16.32;100.00;101721.22;2068660;28;20679;-71
2022/07/12 02:53:23;;;;;;;5.23;1.60;;;;;;;16.32;100.00;101726.81;2068448;28;20193;-71
2022/07/12 02:54:23;;;;;;;4.97;1.50;;;;;;;15.38;100.00;101577.44;2073394;28;20624;-71
2022/07/12 02:55:24;;;;;;;2.63;1.37;;;;;;;16.35;100.00;101718.31;2073413;28;20256;-71
2022/07/12 02:56:24;;;;;;;5.20;1.43;;;;;;;16.36;100.00;101705.94;2073529;28;20227;-71
2022/07/12 02:57:25;;;;;;;5.43;1.80;;;;;;;16.42;100.00;101719.41;2073298;28;20739;-71
2022/07/12 02:58:26;;;;;;;3.53;1.27;;;;;;;16.43;100.00;101732.91;2073706;28;20672;-71
2022/07/12 02:59:26;;;;;;;6.77;1.53;;;;;;;16.43;100.00;101721.72;2067287;28;20578;-71
2022/07/12 03:00:28;;;;;;;5.00;1.40;;;;;;;16.50;100.00;101721.53;2070003;28;20191;-71
2022/07/12 03:01:28;;;;;;;7.00;1.37;;;;;;;15.82;100.00;101609.28;2073200;28;20254;-72
2022/07/12 03:02:29;;;;;;;3.23;1.27;;;;;;;16.57;100.00;101724.09;2070465;28;20444;-71
2022/07/12 03:03:29;;;;;;;5.23;1.67;;;;;;;15.81;100.00;101597.34;2066227;28;20402;-71
2022/07/12 03:04:30;;;;;;;4.73;1.50;;;;;;;16.65;100.00;101726.22;2072590;28;20238;-71
2022/07/12 03:05:30;;;;;;;2.80;1.30;;;;;;;15.59;100.00;101554.50;2073289;28;20189;-71
2022/07/12 03:06:31;;;;;;;5.80;1.70;;;;;;;16.60;100.00;101698.03;2065959;28;20186;-71
2022/07/12 03:07:31;;;;;;;4.63;1.37;;;;;;;16.71;100.00;101726.44;2070779;28;20223;-71
2022/07/12 03:08:32;;;;;;;4.37;1.40;;;;;;;16.68;100.00;101725.34;2072661;28;20199;-71
2022/07/12 03:09:32;;;;;;;4.00;1.30;;;;;;;16.67;100.00;101720.97;2072425;28;20709;-71
2022/07/12 03:10:33;;;;;;;4.03;1.40;;;;;;;16.43;100.00;101674.94;2073165;28;20252;-71
2022/07/12 03:11:34;;;;;;;5.07;1.50;;;;;;;16.80;100.00;101723.78;2070958;28;20193;-71
2022/07/12 03:12:34;;;;;;;3.80;1.50;;;;;;;16.74;100.00;101714.34;2065760;28;20419;-71
2022/07/12 03:13:35;;;;;;;3.40;1.43;;;;;;;16.85;100.00;101729.56;2073478;28;20261;-71
2022/07/12 03:14:35;;;;;;;4.90;1.40;;;;;;;16.85;100.00;101728.81;2065633;28;20280;-71
2022/07/12 03:15:36;;;;;;;2.63;1.37;;;;;;;16.23;100.00;101637.97;2071657;28;20279;-71
2022/07/12 03:16:36;;;;;;;4.60;1.30;;;;;;;16.63;100.00;101687.94;2073455;28;20640;-71
2022/07/12 03:17:37;;;;;;;6.77;1.70;;;;;;;16.89;100.00;101733.06;2072387;28;20194;-71
2022/07/12 03:18:39;;;;;;;5.13;1.80;;;;;;;16.91;100.00;101729.81;2073499;28;20197;-71
2022/07/12 03:19:40;;;;;;;6.50;1.60;;;;;;;16.85;100.00;101715.56;2073159;28;20197;-71
2022/07/12 03:20:40;;;;;;;5.43;1.57;;;;;;;16.90;100.00;101714.25;2072628;28;20437;-71
2022/07/12 03:21:42;;;;;;;4.70;1.60;;;;;;;16.99;100.00;101731.13;2073250;28;20186;-71
2022/07/12 03:22:48;;;;;;;4.60;1.50;;;;;;;17.01;100.00;101728.69;2073689;28;20245;-71
2022/07/12 03:23:49;;;;;;;3.33;1.40;;;;;;;16.43;100.00;101651.78;2072890;28;20444;-71
2022/07/12 03:24:50;;;;;;;5.40;1.40;;;;;;;16.88;100.00;101722.28;2073222;28;20530;-71
2022/07/12 03:25:50;;;;;;;5.07;1.80;;;;;;;16.61;100.00;101674.41;2067128;28;20206;-71
2022/07/12 03:26:51;;;;;;;6.57;1.70;;;;;;;16.74;100.00;101677.97;2069285;28;20199;-71
2022/07/12 03:27:51;;;;;;;8.00;1.70;;;;;;;17.00;100.00;101722.28;2072582;28;20690;-71
2022/07/12 03:28:52;;;;;;;6.20;1.90;;;;;;;16.99;100.00;101725.53;2073182;28;20258;-71
2022/07/12 03:29:52;;;;;;;5.23;1.80;;;;;;;17.05;100.00;101720.94;2073051;28;20187;-71
2022/07/12 03:30:53;;;;;;;10.07;2.40;;;;;;;17.08;100.00;101725.63;2072870;28;20562;-71
2022/07/12 03:31:54;;;;;;;7.80;1.80;;;;;;;17.07;100.00;101729.69;2073900;28;20268;-71
2022/07/12 03:32:54;;;;;;;21.90;3.40;;;;;;;17.08;100.00;101731.25;2065933;28;20241;-71
2022/07/12 03:33:55;;;;;;;6.40;1.57;;;;;;;17.08;100.00;101732.03;2070820;28;20199;-71
2022/07/12 03:34:55;;;;;;;4.80;1.63;;;;;;;17.06;100.00;101730.91;2073162;28;20252;-71
2022/07/12 03:35:56;;;;;;;10.97;2.60;;;;;;;17.12;100.00;101732.69;2073228;28;20203;-71
2022/07/12 03:36:56;;;;;;;8.80;2.00;;;;;;;17.16;100.00;101741.75;2072626;28;20800;-71
2022/07/12 03:37:57;;;;;;;6.20;1.63;;;;;;;17.21;100.00;101734.81;2072795;28;20180;-71
2022/07/12 03:38:57;;;;;;;7.93;1.50;;;;;;;17.19;100.00;101732.47;2072989;28;20263;-71
2022/07/12 03:39:58;;;;;;;4.03;1.30;;;;;;;16.56;100.00;101644.19;2073749;28;20212;-71
2022/07/12 03:40:58;;;;;;;11.77;2.83;;;;;;;17.18;100.00;101735.72;2072760;28;20196;-71
2022/07/12 03:41:58;;;;;;;5.70;1.27;;;;;;;17.21;100.00;101737.63;2073056;28;20206;-71
2022/07/12 03:42:59;;;;;;;7.50;2.20;;;;;;;17.20;100.00;101745.22;2072866;28;20207;-71
2022/07/12 03:43:59;;;;;;;6.77;1.70;;;;;;;17.25;100.00;101744.66;2068388;28;20661;-71
2022/07/12 03:45:00;;;;;;;3.73;1.40;;;;;;;17.27;100.00;101744.22;2067603;28;20207;-71
2022/07/12 03:46:00;;;;;;;5.57;1.27;;;;;;;16.70;100.00;101652.88;2072758;28;20261;-71
2022/07/12 03:47:01;;;;;;;11.80;1.67;;;;;;;17.12;100.00;101735.47;2072536;28;20184;-71
2022/07/12 03:48:02;;;;;;;4.83;1.37;;;;;;;16.36;100.00;101608.00;2073569;28;20219;-71
2022/07/12 03:49:02;;;;;;;4.83;1.10;;;;;;;16.34;100.00;101615.28;2065213;28;20695;-71
2022/07/12 03:50:05;;;;;;;5.20;1.50;;;;;;;17.06;100.00;101728.13;2065075;28;20267;-71
2022/07/12 03:51:05;;;;;;;3.57;1.63;;;;;;;17.17;100.00;101740.50;2070585;28;20211;-71
2022/07/12 03:52:06;;;;;;;6.37;1.90;;;;;;;17.20;100.00;101748.03;2068539;28;20461;-71
2022/07/12 03:53:07;;;;;;;6.10;1.80;;;;;;;17.22;100.00;101741.97;2068164;28;20674;-71
2022/07/12 03:54:08;;;;;;;4.30;1.27;;;;;;;17.21;100.00;101741.19;2072965;28;20852;-71
2022/07/12 03:55:13;;;;;;;5.90;1.87;;;;;;;17.19;100.00;101731.66;2072931;28;20190;-71
2022/07/12 03:57:13;;;;;;;6.87;1.73;;;;;;;17.31;100.00;101753.28;2073143;28;20261;-71
2022/07/12 03:57:34;;;;;;;4.30;1.20;;;;;;;16.24;100.00;101589.19;2072181;28;20439;-71
2022/07/12 03:58:36;;;;;;;3.57;1.30;;;;;;;16.73;100.00;101651.19;2072850;28;20470;-71
2022/07/12 03:59:36;;;;;;;3.63;1.40;;;;;;;17.39;100.00;101751.06;2072894;28;20179;-71
2022/07/12 04:00:37;;;;;;;4.50;1.43;;;;;;;17.39;100.00;101742.66;2073157;28;20424;-71
2022/07/12 04:01:38;;;;;;;4.30;1.50;;;;;;;17.32;100.00;101736.00;2072194;28;20197;-71
2022/07/12 04:02:39;;;;;;;5.50;1.60;;;;;;;17.43;100.00;101755.28;2072154;28;20977;-71
2022/07/12 04:03:40;;;;;;;4.90;1.70;;;;;;;17.45;100.00;101752.81;2072296;28;20194;-71
2022/07/12 04:04:41;;;;;;;5.37;1.60;;;;;;;17.48;100.00;101751.91;2072936;28;20825;-71
2022/07/12 04:05:42;;;;;;;4.43;1.70;;;;;;;17.55;100.00;101750.91;2072715;28;20235;-71
2022/07/12 04:06:42;;;;;;;4.37;1.43;;;;;;;17.54;100.00;101747.31;2072571;28;20422;-71
2022/07/12 04:07:43;;;;;;;6.37;1.73;;;;;;;17.48;100.00;101746.31;2070437;28;20212;-71
2022/07/12 04:08:43;;;;;;;4.03;1.50;;;;;;;16.79;100.00;101633.41;2064465;28;20178;-71
2022/07/12 04:09:44;;;;;;;5.70;1.60;;;;;;;17.27;100.00;101707.78;2065027;28;20200;-71
2022/07/12 04:10:44;;;;;;;5.53;1.67;;;;;;;17.33;100.00;101691.97;2071500;28;20307;-71
2022/07/12 04:11:45;;;;;;;5.50;1.50;;;;;;;17.73;100.00;101755.41;2072836;28;20275;-71
2022/07/12 04:12:45;;;;;;;5.07;1.63;;;;;;;17.49;100.00;101716.28;2072682;28;20698;-71
2022/07/12 04:13:46;;;;;;;6.37;1.50;;;;;;;17.67;100.00;101755.66;2069067;28;20201;-71
2022/07/12 04:14:46;;;;;;;7.13;2.00;;;;;;;17.41;100.00;101724.16;2066984;28;20184;-71
2022/07/12 04:15:47;;;;;;;14.20;2.67;;;;;;;17.65;100.00;101758.94;2070809;28;20205;-71
2022/07/12 04:16:47;;;;;;;4.87;1.70;;;;;;;17.70;100.00;101763.19;2070131;28;20724;-71
2022/07/12 04:17:48;;;;;;;2.33;1.07;;;;;;;17.76;100.00;101762.13;2065188;28;20264;-72
2022/07/12 04:18:48;;;;;;;4.03;1.57;;;;;;;17.79;100.00;101775.25;2072301;28;20209;-71
2022/07/12 04:19:49;;;;;;;4.93;1.53;;;;;;;17.81;100.00;101760.78;2072555;28;20191;-71
2022/07/12 04:20:49;;;;;;;8.40;1.80;;;;;;;17.87;100.00;101765.38;2067804;28;20198;-71
2022/07/12 04:21:50;;;;;;;4.03;1.43;;;;;;;17.88;100.00;101767.69;2067872;28;20673;-71
2022/07/12 04:22:50;;;;;;;2.63;1.30;;;;;;;17.45;100.00;101696.00;2072814;28;20237;-71
2022/07/12 04:23:51;;;;;;;4.00;1.10;;;;;;;17.88;100.00;101769.72;2071332;28;20240;-71
2022/07/12 04:24:51;;;;;;;5.13;1.40;;;;;;;17.82;100.00;101756.75;2072130;28;20225;-71
2022/07/12 04:25:52;;;;;;;5.10;1.20;;;;;;;17.98;100.00;101772.13;2072995;28;20292;-71
2022/07/12 04:26:53;;;;;;;3.10;1.30;;;;;;;17.34;100.00;101666.31;2072368;28;20201;-71
2022/07/12 04:27:55;;;;;;;4.23;1.30;;;;;;;17.91;100.00;101751.97;2070680;28;20229;-71
2022/07/12 04:28:55;;;;;;;2.90;1.30;;;;;;;17.99;100.00;101761.72;2072237;28;20242;-71
2022/07/12 04:29:56;;;;;;;4.10;1.43;;;;;;;18.08;100.00;101775.81;2072614;28;20465;-72
2022/07/12 04:30:56;;;;;;;6.43;1.43;;;;;;;18.18;100.00;101772.59;2072465;28;20969;-71
2022/07/12 04:31:57;;;;;;;6.17;1.50;;;;;;;18.22;100.00;101764.06;2072103;28;20182;-71
2022/07/12 04:32:57;;;;;;;5.47;1.47;;;;;;;18.25;100.00;101777.19;2072481;28;20182;-71
2022/07/12 04:33:58;;;;;;;6.47;1.60;;;;;;;18.23;100.00;101771.25;2072911;28;20182;-71
2022/07/12 04:34:58;;;;;;;6.20;1.73;;;;;;;18.26;100.00;101794.81;2065035;28;20208;-71
2022/07/12 04:35:59;;;;;;;5.00;1.63;;;;;;;18.33;100.00;101775.72;2070942;28;20212;-71
2022/07/12 04:37:00;;;;;;;3.03;1.23;;;;;;;18.37;100.00;101778.38;2071894;28;20197;-71
2022/07/12 04:38:00;;;;;;;3.87;1.43;;;;;;;18.44;100.00;101778.91;2071183;28;20712;-71
2022/07/12 04:39:01;;;;;;;5.00;1.60;;;;;;;18.43;100.00;101774.50;2071752;28;20207;-71
2022/07/12 04:40:01;;;;;;;7.10;1.43;;;;;;;18.51;100.00;101780.63;2072521;28;20261;-71
2022/07/12 04:41:02;;;;;;;5.57;1.50;;;;;;;18.06;100.00;101710.19;2071444;28;20185;-71